Time;durP1;ratioP1;P1;durP2;ratioP2;P2;SDS_P1;SDS_P2;PMS_P1;PMS_P2;Temp;Humidity;BMP_temperature;BMP_pressure;BME280_temperature;BME280_humidity;BME280_pressure;Samples;Min_cycle;Max_cycle;Signal;HPM_P1;HPM_P2
2022/03/03 00:00:19;;;;;;;8.52;5.57;;;20.40;46.70;;;;;;5012536;28;20409;-59
2022/03/03 00:02:44;;;;;;;9.93;5.90;;;20.40;46.60;;;;;;5013249;28;20107;-59
2022/03/03 00:05:10;;;;;;;13.60;5.80;;;20.30;46.60;;;;;;5015320;28;20428;-59
2022/03/03 00:07:36;;;;;;;7.97;5.70;;;20.30;46.60;;;;;;5014930;28;20045;-60
2022/03/03 00:10:02;;;;;;;10.73;5.90;;;20.30;46.40;;;;;;5016222;28;20050;-59
2022/03/03 00:12:27;;;;;;;7.93;5.72;;;20.30;46.30;;;;;;5015430;28;20544;-59
2022/03/03 00:14:53;;;;;;;9.70;5.47;;;20.30;46.30;;;;;;5015355;28;20081;-59
2022/03/03 00:17:18;;;;;;;8.93;6.32;;;20.20;46.20;;;;;;5015915;28;20096;-59
2022/03/03 00:19:44;;;;;;;9.07;5.68;;;20.30;46.30;;;;;;5015856;28;20041;-59
2022/03/03 00:22:10;;;;;;;7.95;5.75;;;20.20;46.20;;;;;;5015153;28;20030;-59
2022/03/03 00:24:36;;;;;;;8.65;5.05;;;20.20;46.20;;;;;;5015705;28;20512;-59
2022/03/03 00:27:02;;;;;;;7.38;5.25;;;20.20;46.20;;;;;;5015570;28;20109;-58
2022/03/03 00:29:28;;;;;;;9.15;5.78;;;20.20;46.20;;;;;;5015288;28;20141;-59
2022/03/03 00:31:53;;;;;;;11.05;5.50;;;20.20;46.40;;;;;;5016012;28;20132;-59
2022/03/03 00:34:19;;;;;;;9.05;5.63;;;20.10;46.40;;;;;;5014548;28;20038;-58
2022/03/03 00:36:44;;;;;;;7.88;5.38;;;20.10;46.40;;;;;;5015804;28;20516;-59
2022/03/03 00:39:10;;;;;;;9.90;5.82;;;20.10;46.40;;;;;;5014987;28;20401;-59
2022/03/03 00:41:36;;;;;;;8.60;5.30;;;20.10;46.50;;;;;;5014923;28;20053;-59
2022/03/03 00:44:01;;;;;;;8.40;5.03;;;20.10;46.50;;;;;;5015644;28;20053;-59
2022/03/03 00:46:27;;;;;;;7.95;5.30;;;20.10;46.50;;;;;;5015248;28;20042;-59
2022/03/03 00:48:54;;;;;;;7.47;5.05;;;20.00;46.50;;;;;;5015034;28;20092;-59
2022/03/03 00:51:20;;;;;;;7.85;5.15;;;20.10;46.60;;;;;;5015118;28;20133;-59
2022/03/03 00:53:47;;;;;;;6.68;4.85;;;20.00;46.50;;;;;;5014500;28;20125;-59
2022/03/03 00:56:12;;;;;;;7.78;5.28;;;20.00;46.50;;;;;;5014212;28;20049;-59
2022/03/03 00:58:37;;;;;;;7.20;4.50;;;20.00;46.50;;;;;;5015533;28;20042;-59
2022/03/03 01:01:03;;;;;;;8.60;5.80;;;20.00;46.50;;;;;;5014982;28;20049;-59
2022/03/03 01:03:29;;;;;;;7.10;4.80;;;20.00;46.50;;;;;;5014597;28;20505;-59
2022/03/03 01:05:54;;;;;;;7.53;4.90;;;20.00;46.50;;;;;;5015017;28;20046;-59
2022/03/03 01:08:20;;;;;;;6.82;4.78;;;20.00;46.60;;;;;;5014560;28;20140;-59
2022/03/03 01:10:45;;;;;;;7.85;5.03;;;20.00;46.60;;;;;;5014357;28;20117;-59
2022/03/03 01:13:11;;;;;;;7.32;4.80;;;19.90;46.50;;;;;;5014776;28;20437;-59
2022/03/03 01:15:36;;;;;;;8.43;5.68;;;19.90;46.50;;;;;;5014897;28;20092;-59
2022/03/03 01:18:02;;;;;;;8.00;4.88;;;19.90;46.40;;;;;;5014153;28;20049;-59
2022/03/03 01:20:28;;;;;;;7.53;4.95;;;19.90;46.50;;;;;;5014792;28;20492;-59
2022/03/03 01:22:54;;;;;;;8.55;5.05;;;19.90;46.50;;;;;;5014735;28;20129;-58
2022/03/03 01:25:19;;;;;;;7.13;4.88;;;19.90;46.50;;;;;;5013753;28;20123;-59
2022/03/03 01:27:45;;;;;;;7.10;4.80;;;19.90;46.50;;;;;;5014841;28;20093;-59
2022/03/03 01:30:11;;;;;;;7.13;5.30;;;19.90;46.40;;;;;;5014298;28;20034;-59
2022/03/03 01:32:37;;;;;;;7.22;5.00;;;19.90;46.40;;;;;;5013857;28;20490;-59
2022/03/03 01:35:02;;;;;;;7.82;5.15;;;19.80;46.40;;;;;;5014503;28;20509;-59
2022/03/03 01:37:28;;;;;;;6.22;4.72;;;19.90;46.50;;;;;;5013338;28;20061;-59
2022/03/03 01:39:53;;;;;;;6.80;4.68;;;19.80;46.40;;;;;;5014704;28;20049;-59
2022/03/03 01:42:19;;;;;;;7.50;5.40;;;19.80;46.40;;;;;;5013975;28;20046;-59
2022/03/03 01:44:45;;;;;;;6.80;4.85;;;19.80;46.40;;;;;;5013715;28;20046;-59
2022/03/03 01:47:24;;;;;;;7.47;4.75;;;19.80;46.40;;;;;;5014001;28;20061;-59
2022/03/03 01:49:51;;;;;;;7.40;5.15;;;19.80;46.40;;;;;;5014251;28;20091;-59
2022/03/03 01:52:16;;;;;;;8.25;5.25;;;19.80;46.40;;;;;;5013310;28;20038;-59
2022/03/03 01:54:42;;;;;;;7.25;5.13;;;19.80;46.40;;;;;;5014353;28;20048;-59
2022/03/03 01:57:07;;;;;;;8.57;5.47;;;19.70;46.30;;;;;;5013629;28;20124;-59
2022/03/03 01:59:33;;;;;;;7.20;4.97;;;19.80;46.40;;;;;;5013321;28;20042;-59
2022/03/03 02:01:59;;;;;;;8.85;4.97;;;19.70;46.30;;;;;;5013991;28;20049;-59
2022/03/03 02:04:25;;;;;;;7.45;5.07;;;19.70;46.20;;;;;;5014009;28;20548;-59
2022/03/03 02:06:50;;;;;;;7.45;5.25;;;19.70;46.20;;;;;;5012772;28;20081;-59
2022/03/03 02:09:16;;;;;;;7.78;5.72;;;19.70;46.20;;;;;;5013404;28;20498;-59
2022/03/03 02:11:42;;;;;;;6.82;4.93;;;19.70;46.20;;;;;;5012644;28;20316;-59
2022/03/03 02:14:07;;;;;;;7.35;4.90;;;19.70;46.10;;;;;;4995623;28;20053;-59
2022/03/03 02:16:33;;;;;;;6.88;4.97;;;19.70;46.20;;;;;;5013812;28;20057;-59
2022/03/03 02:18:58;;;;;;;7.57;5.18;;;19.70;46.10;;;;;;5013574;28;20540;-59
2022/03/03 02:21:24;;;;;;;7.70;4.80;;;19.70;46.10;;;;;;5012744;28;20049;-59
2022/03/03 02:23:50;;;;;;;7.93;5.25;;;19.60;46.10;;;;;;5013651;28;20497;-59
2022/03/03 02:26:20;;;;;;;7.55;4.90;;;19.60;46.10;;;;;;5013344;28;20505;-59
2022/03/03 02:28:49;;;;;;;5.50;4.32;;;19.60;46.20;;;;;;5013050;28;20034;-59
2022/03/03 02:31:14;;;;;;;7.60;4.85;;;19.60;46.10;;;;;;5013284;28;20041;-59
2022/03/03 02:33:40;;;;;;;7.65;4.80;;;19.60;46.20;;;;;;5013684;28;20108;-59
2022/03/03 02:36:20;;;;;;;6.13;4.72;;;19.60;46.20;;;;;;5012597;28;20057;-59
2022/03/03 02:38:46;;;;;;;6.78;4.45;;;19.60;46.10;;;;;;5013288;28;20042;-59
2022/03/03 02:41:11;;;;;;;7.45;4.80;;;19.60;46.20;;;;;;5012325;28;20075;-59
2022/03/03 02:43:37;;;;;;;6.80;4.72;;;19.60;46.20;;;;;;5013145;28;20087;-59
2022/03/03 02:46:02;;;;;;;7.22;4.50;;;19.60;46.20;;;;;;5013479;28;20041;-59
2022/03/03 02:48:28;;;;;;;6.50;4.70;;;19.50;46.10;;;;;;5010805;28;20085;-59
2022/03/03 02:50:53;;;;;;;8.15;4.45;;;19.60;46.20;;;;;;5013352;28;20073;-59
2022/03/03 02:53:19;;;;;;;8.07;4.95;;;19.60;46.20;;;;;;5011474;28;20038;-58
2022/03/03 02:55:45;;;;;;;6.68;4.75;;;19.60;46.10;;;;;;5012583;28;20131;-59
2022/03/03 02:58:11;;;;;;;7.80;4.93;;;19.60;46.10;;;;;;5013102;28;20397;-59
2022/03/03 03:00:42;;;;;;;6.82;4.60;;;19.60;46.10;;;;;;5013054;28;20549;-59
2022/03/03 03:03:08;;;;;;;7.57;5.25;;;19.60;46.20;;;;;;5010524;28;20072;-59
2022/03/03 03:05:34;;;;;;;7.15;5.00;;;19.60;46.10;;;;;;5012625;28;20038;-59
2022/03/03 03:08:00;;;;;;;6.30;4.70;;;19.60;46.20;;;;;;5012671;28;20383;-59
2022/03/03 03:10:25;;;;;;;7.20;4.90;;;19.60;46.10;;;;;;5012097;28;20450;-58
2022/03/03 03:12:51;;;;;;;6.90;4.53;;;19.60;46.20;;;;;;5012841;28;20143;-59
2022/03/03 03:15:17;;;;;;;7.32;4.57;;;19.60;46.20;;;;;;5012635;28;20050;-58
2022/03/03 03:17:42;;;;;;;6.57;4.72;;;19.70;46.10;;;;;;5011413;28;20060;-58
2022/03/03 03:20:08;;;;;;;7.15;4.82;;;19.70;46.10;;;;;;5011379;28;20049;-59
2022/03/03 03:22:37;;;;;;;6.43;4.55;;;19.70;46.10;;;;;;5013362;28;20537;-59
2022/03/03 03:25:04;;;;;;;6.45;4.38;;;19.70;46.10;;;;;;5011982;28;20129;-58
2022/03/03 03:27:30;;;;;;;6.47;4.50;;;19.70;46.00;;;;;;5012622;28;20405;-59
2022/03/03 03:29:55;;;;;;;6.40;4.57;;;19.70;46.00;;;;;;5012450;28;20038;-59
2022/03/03 03:32:21;;;;;;;6.82;4.93;;;19.70;45.90;;;;;;5011920;28;20141;-59
2022/03/03 03:34:46;;;;;;;6.45;4.55;;;19.70;45.90;;;;;;5012974;28;20076;-59
2022/03/03 03:37:12;;;;;;;6.13;4.65;;;19.70;45.90;;;;;;5011818;28;20061;-59
2022/03/03 03:39:37;;;;;;;7.53;4.97;;;19.70;46.00;;;;;;5012558;28;20133;-58
2022/03/03 03:42:03;;;;;;;7.18;4.85;;;19.80;46.00;;;;;;5012816;28;20044;-59
2022/03/03 03:44:29;;;;;;;6.30;4.55;;;19.80;46.00;;;;;;5011767;28;20099;-59
2022/03/03 03:46:54;;;;;;;7.38;4.75;;;19.80;46.00;;;;;;5012675;28;20045;-59
2022/03/03 03:49:20;;;;;;;7.53;5.18;;;19.70;45.80;;;;;;5012565;28;20038;-59
2022/03/03 03:51:45;;;;;;;7.65;4.60;;;19.80;45.90;;;;;;5012029;28;20092;-58
2022/03/03 03:54:11;;;;;;;6.97;4.45;;;19.80;45.90;;;;;;5012178;28;20103;-58
2022/03/03 03:56:36;;;;;;;7.35;4.53;;;19.80;45.80;;;;;;5012454;28;20478;-58
2022/03/03 03:59:02;;;;;;;7.22;4.60;;;19.80;45.80;;;;;;5012446;28;20048;-58
2022/03/03 04:01:30;;;;;;;6.18;4.43;;;19.80;45.80;;;;;;5012394;28;20053;-59
2022/03/03 04:03:56;;;;;;;;;;;19.80;45.80;;;;;;5013155;28;20054;-58
2022/03/03 04:06:22;;;;;;;7.05;4.78;;;19.80;45.80;;;;;;5011277;28;19928;-59
2022/03/03 04:08:47;;;;;;;6.78;4.72;;;19.80;45.80;;;;;;5012216;28;20060;-58
2022/03/03 04:11:13;;;;;;;6.07;4.40;;;19.80;45.80;;;;;;5012208;28;20050;-58
2022/03/03 04:13:38;;;;;;;5.65;4.40;;;19.90;45.80;;;;;;5011398;28;20054;-58
2022/03/03 04:16:04;;;;;;;5.75;4.38;;;19.90;45.80;;;;;;5012242;28;20508;-58
2022/03/03 04:18:29;;;;;;;7.22;4.90;;;19.90;45.70;;;;;;5012432;28;20054;-58
2022/03/03 04:20:55;;;;;;;7.03;4.47;;;19.90;45.80;;;;;;5011871;28;20076;-58
2022/03/03 04:23:20;;;;;;;6.90;4.60;;;19.90;45.80;;;;;;5012193;28;20050;-58
2022/03/03 04:25:46;;;;;;;8.43;4.53;;;19.90;45.60;;;;;;5012546;28;20153;-59
2022/03/03 04:28:11;;;;;;;7.07;4.90;;;19.90;45.70;;;;;;5011324;28;20046;-58
2022/03/03 04:30:37;;;;;;;6.68;4.50;;;19.90;45.60;;;;;;5015286;28;20069;-59
2022/03/03 04:33:02;;;;;;;7.10;4.60;;;19.90;45.60;;;;;;5016065;28;20069;-59
2022/03/03 04:35:28;;;;;;;7.25;4.63;;;19.90;45.70;;;;;;5014957;28;20046;-59
2022/03/03 04:37:54;;;;;;;6.45;4.53;;;19.90;45.60;;;;;;5015748;28;20509;-59
2022/03/03 04:40:20;;;;;;;6.53;4.50;;;19.90;45.60;;;;;;5014597;28;20111;-59
2022/03/03 04:42:45;;;;;;;6.30;4.22;;;19.90;45.60;;;;;;5015639;28;20034;-59
2022/03/03 04:45:11;;;;;;;6.13;4.57;;;20.00;45.70;;;;;;5015244;28;20046;-59
2022/03/03 04:47:36;;;;;;;6.32;4.30;;;19.90;45.60;;;;;;5015022;28;20041;-59
2022/03/03 04:50:02;;;;;;;5.82;4.35;;;20.00;45.60;;;;;;5015607;28;20490;-59
2022/03/03 04:52:28;;;;;;;7.53;4.50;;;20.00;45.70;;;;;;5015375;28;20124;-58
2022/03/03 04:54:53;;;;;;;6.88;4.30;;;20.00;45.60;;;;;;5014455;28;20085;-59
2022/03/03 04:57:19;;;;;;;7.32;4.50;;;20.00;45.60;;;;;;5015203;28;20046;-59
2022/03/03 04:59:45;;;;;;;5.53;4.18;;;20.00;45.60;;;;;;5015229;28;20355;-59
2022/03/03 05:02:10;;;;;;;7.28;4.88;;;20.00;45.60;;;;;;5007760;28;20520;-58
2022/03/03 05:04:35;;;;;;;5.88;4.25;;;19.90;45.60;;;;;;5013497;28;20042;-59
2022/03/03 05:07:01;;;;;;;7.18;4.88;;;20.00;45.60;;;;;;5014732;28;20100;-59
2022/03/03 05:09:27;;;;;;;7.05;4.40;;;20.00;45.60;;;;;;5013849;28;20467;-59
2022/03/03 05:11:52;;;;;;;6.40;3.75;;;20.00;45.50;;;;;;5015129;28;20453;-59
2022/03/03 05:14:18;;;;;;;6.88;4.82;;;20.00;45.60;;;;;;5014809;28;20042;-59
2022/03/03 05:16:43;;;;;;;6.32;4.22;;;20.00;45.50;;;;;;5014375;28;20112;-58
2022/03/03 05:19:09;;;;;;;6.82;4.65;;;20.00;45.60;;;;;;5014684;28;20132;-58
2022/03/03 05:21:34;;;;;;;6.50;4.20;;;20.00;45.50;;;;;;5014913;28;20041;-58
2022/03/03 05:24:00;;;;;;;5.90;3.92;;;20.00;45.50;;;;;;5013952;28;20117;-58
2022/03/03 05:26:25;;;;;;;5.50;4.53;;;20.00;45.50;;;;;;5014466;28;20470;-59
2022/03/03 05:28:51;;;;;;;5.47;3.55;;;20.00;45.50;;;;;;5014615;28;20049;-58
2022/03/03 05:31:16;;;;;;;5.38;4.03;;;20.00;45.50;;;;;;5013789;28;20042;-58
2022/03/03 05:33:42;;;;;;;5.65;4.00;;;20.00;45.50;;;;;;5014738;28;20375;-59
2022/03/03 05:36:09;;;;;;;5.78;4.13;;;20.00;45.50;;;;;;5014156;28;20395;-59
2022/03/03 05:38:35;;;;;;;5.53;3.92;;;20.10;45.60;;;;;;5013828;28;20045;-58
2022/03/03 05:41:01;;;;;;;6.10;4.30;;;20.00;45.50;;;;;;5014221;28;20042;-59
2022/03/03 05:43:26;;;;;;;6.38;4.07;;;20.10;45.50;;;;;;5014132;28;20108;-59
2022/03/03 05:45:52;;;;;;;5.90;4.00;;;20.10;45.50;;;;;;5012534;28;20124;-59
2022/03/03 05:48:19;;;;;;;6.30;4.32;;;20.00;45.50;;;;;;5012993;28;20383;-59
2022/03/03 05:50:45;;;;;;;6.40;4.15;;;20.10;45.50;;;;;;5013750;28;20046;-59
2022/03/03 05:53:10;;;;;;;5.32;4.18;;;20.10;45.50;;;;;;5019841;28;20037;-59
2022/03/03 05:55:39;;;;;;;7.75;4.32;;;20.10;45.40;;;;;;5034092;28;20371;-59
2022/03/03 05:58:04;;;;;;;5.50;3.97;;;20.10;45.40;;;;;;5031484;28;20052;-58
2022/03/03 06:00:30;;;;;;;5.97;3.97;;;20.10;45.40;;;;;;5032853;28;20041;-59
2022/03/03 06:02:55;;;;;;;5.78;4.10;;;20.10;45.40;;;;;;5032853;28;20412;-59
2022/03/03 06:05:25;;;;;;;6.75;4.20;;;20.10;45.40;;;;;;5032559;28;20128;-59
2022/03/03 06:07:53;;;;;;;5.47;3.90;;;20.10;45.40;;;;;;5033669;28;20053;-58
2022/03/03 06:10:22;;;;;;;5.85;4.45;;;20.10;45.40;;;;;;5033351;28;20049;-59
2022/03/03 06:12:48;;;;;;;5.57;3.95;;;20.10;45.40;;;;;;5033002;28;20091;-58
2022/03/03 06:15:14;;;;;;;6.10;4.30;;;20.10;45.40;;;;;;5033488;28;20420;-58
2022/03/03 06:17:42;;;;;;;5.35;4.05;;;20.10;45.40;;;;;;5033870;28;20574;-58
2022/03/03 06:20:08;;;;;;;6.13;3.95;;;20.10;45.40;;;;;;5032507;28;20120;-58
2022/03/03 06:22:34;;;;;;;5.45;4.28;;;20.10;45.40;;;;;;5033454;28;20033;-58
2022/03/03 06:25:00;;;;;;;6.38;4.07;;;20.10;45.40;;;;;;5032851;28;20660;-58
2022/03/03 06:27:26;;;;;;;6.78;4.07;;;20.10;45.30;;;;;;5030315;28;20100;-58
2022/03/03 06:29:52;;;;;;;4.88;3.75;;;20.10;45.30;;;;;;5033486;28;20045;-58
2022/03/03 06:32:18;;;;;;;6.10;3.95;;;20.10;45.30;;;;;;5031575;28;20404;-58
2022/03/03 06:34:43;;;;;;;6.20;4.00;;;20.10;45.30;;;;;;5032744;28;20496;-59
2022/03/03 06:37:09;;;;;;;5.28;3.80;;;20.20;45.30;;;;;;5033548;28;20520;-59
2022/03/03 06:39:34;;;;;;;8.63;4.35;;;20.10;45.30;;;;;;5032751;28;20051;-59
2022/03/03 06:42:00;;;;;;;6.43;4.30;;;20.10;45.30;;;;;;5030995;28;20045;-59
2022/03/03 06:44:25;;;;;;;5.05;3.55;;;20.10;45.30;;;;;;5032821;28;20489;-59
2022/03/03 06:46:51;;;;;;;5.45;3.80;;;20.10;45.30;;;;;;5033240;28;20049;-59
2022/03/03 06:49:16;;;;;;;5.28;3.70;;;20.10;45.20;;;;;;5031939;28;20041;-59
2022/03/03 06:51:43;;;;;;;5.50;3.75;;;20.10;45.20;;;;;;5032391;28;20046;-59
2022/03/03 06:54:13;;;;;;;5.35;3.88;;;20.10;45.20;;;;;;5031344;28;20045;-58
2022/03/03 06:57:08;;;;;;;6.80;4.00;;;20.20;45.30;;;;;;5010639;28;20081;-59
2022/03/03 06:59:34;;;;;;;9.52;4.40;;;20.20;45.20;;;;;;4999096;28;20482;-59
2022/03/03 07:02:00;;;;;;;7.60;4.68;;;20.20;45.00;;;;;;5012278;28;20052;-58
2022/03/03 07:04:28;;;;;;;7.13;4.18;;;20.20;44.80;;;;;;5012763;28;20050;-58
2022/03/03 07:06:54;;;;;;;5.47;4.05;;;20.20;44.80;;;;;;5012859;28;20061;-59
2022/03/03 07:09:19;;;;;;;7.18;4.47;;;20.20;44.80;;;;;;5011816;28;20054;-58
2022/03/03 07:11:45;;;;;;;6.90;3.97;;;20.20;44.90;;;;;;5013018;28;20045;-58
2022/03/03 07:14:12;;;;;;;4.88;3.55;;;20.20;44.80;;;;;;5012393;28;20056;-58
2022/03/03 07:16:45;;;;;;;5.80;3.83;;;20.20;44.90;;;;;;5012367;28;20053;-59
2022/03/03 07:19:25;;;;;;;6.82;4.40;;;20.30;45.00;;;;;;5012396;28;20045;-58
2022/03/03 07:22:14;;;;;;;8.15;4.38;;;20.20;45.00;;;;;;4996263;28;20112;-58
2022/03/03 07:24:47;;;;;;;7.72;4.40;;;20.30;45.20;;;;;;5013028;28;20049;-58
2022/03/03 07:27:21;;;;;;;7.18;4.38;;;20.30;45.40;;;;;;5012381;28;20077;-58
2022/03/03 07:29:56;;;;;;;6.80;4.00;;;20.30;45.60;;;;;;5011750;28;20042;-58
2022/03/03 07:32:31;;;;;;;7.22;3.95;;;20.30;45.70;;;;;;5012469;28;20092;-57
2022/03/03 07:34:59;;;;;;;6.75;3.97;;;20.30;45.70;;;;;;5011921;28;20056;-58
2022/03/03 07:37:31;;;;;;;6.13;4.20;;;20.40;45.70;;;;;;5011564;28;20528;-58
2022/03/03 07:40:01;;;;;;;7.50;4.00;;;20.30;45.60;;;;;;5012905;28;20057;-58
2022/03/03 07:42:26;;;;;;;6.03;3.85;;;20.30;45.80;;;;;;4995510;28;20549;-58
2022/03/03 07:44:52;;;;;;;8.63;4.30;;;20.40;45.80;;;;;;5012003;28;20180;-58
2022/03/03 07:47:17;;;;;;;7.03;4.10;;;20.40;45.90;;;;;;5012293;28;20145;-58
2022/03/03 07:49:43;;;;;;;6.40;4.43;;;20.40;45.80;;;;;;5012454;28;20402;-58
2022/03/03 07:52:08;;;;;;;6.40;4.10;;;20.40;45.70;;;;;;4993091;28;20053;-58
2022/03/03 07:54:34;;;;;;;6.55;4.05;;;20.40;45.60;;;;;;5012313;28;20038;-58
2022/03/03 07:57:00;;;;;;;7.63;4.40;;;20.50;45.80;;;;;;5012228;28;20057;-58
2022/03/03 07:59:33;;;;;;;5.90;4.03;;;20.50;45.80;;;;;;5011672;28;20042;-59
2022/03/03 08:02:03;;;;;;;8.85;4.13;;;20.50;45.80;;;;;;5012791;28;20077;-59
2022/03/03 08:04:29;;;;;;;7.15;4.20;;;20.50;45.80;;;;;;5014514;28;20054;-58
2022/03/03 08:07:08;;;;;;;6.78;3.83;;;20.50;45.80;;;;;;5016027;28;20484;-58
2022/03/03 08:09:34;;;;;;;7.40;4.18;;;20.60;45.90;;;;;;5015940;28;20054;-57
2022/03/03 08:12:04;;;;;;;5.68;4.00;;;20.60;45.70;;;;;;5015261;28;20136;-57
2022/03/03 08:14:30;;;;;;;6.75;4.13;;;20.60;45.70;;;;;;5016111;28;20493;-57
2022/03/03 08:16:55;;;;;;;6.20;4.38;;;20.60;45.50;;;;;;5015228;28;20096;-57
2022/03/03 08:19:21;;;;;;;9.15;4.50;;;20.70;45.50;;;;;;5012330;28;20053;-58
2022/03/03 08:21:47;;;;;;;7.50;4.32;;;20.70;45.60;;;;;;5015040;28;20049;-57
2022/03/03 08:24:13;;;;;;;7.07;4.13;;;20.70;45.70;;;;;;5015272;28;20046;-58
2022/03/03 08:26:39;;;;;;;6.47;4.53;;;20.70;45.80;;;;;;5014811;28;20049;-58
2022/03/03 08:29:04;;;;;;;6.50;4.47;;;20.70;46.50;;;;;;5015508;28;20045;-58
2022/03/03 08:31:38;;;;;;;6.93;3.97;;;20.80;45.80;;;;;;5015722;28;20053;-58
2022/03/03 08:34:12;;;;;;;5.80;3.95;;;20.80;45.90;;;;;;5014914;28;20439;-58
2022/03/03 08:36:47;;;;;;;7.97;4.40;;;20.80;45.80;;;;;;5014886;28;20087;-58
2022/03/03 08:39:14;;;;;;;6.28;4.30;;;20.90;46.00;;;;;;5015258;28;20096;-57
2022/03/03 08:41:41;;;;;;;7.03;4.33;;;20.80;45.80;;;;;;5014394;28;20045;-58
2022/03/03 08:44:07;;;;;;;6.15;4.25;;;20.80;45.80;;;;;;5013970;28;20049;-59
2022/03/03 08:46:34;;;;;;;5.72;3.90;;;20.90;45.90;;;;;;5014431;28;20095;-58
2022/03/03 08:49:01;;;;;;;6.32;4.03;;;20.90;45.80;;;;;;5015252;28;20413;-57
2022/03/03 08:51:27;;;;;;;8.82;4.40;;;20.90;45.70;;;;;;5015232;28;20045;-59
2022/03/03 08:53:52;;;;;;;6.85;4.45;;;20.90;45.60;;;;;;5014399;28;20046;-58
2022/03/03 08:56:18;;;;;;;6.43;4.25;;;20.90;45.50;;;;;;5014845;28;20044;-57
2022/03/03 08:58:44;;;;;;;6.43;4.03;;;21.00;45.50;;;;;;5015157;28;20104;-57
2022/03/03 09:01:09;;;;;;;7.93;4.40;;;21.00;45.50;;;;;;5014075;28;20172;-57
2022/03/03 09:03:35;;;;;;;7.63;4.25;;;21.00;45.50;;;;;;5015018;28;20128;-57
2022/03/03 09:06:01;;;;;;;6.22;4.13;;;21.00;45.50;;;;;;5015061;28;20057;-58
2022/03/03 09:08:26;;;;;;;7.22;5.05;;;21.00;45.40;;;;;;5013824;28;20462;-57
2022/03/03 09:10:52;;;;;;;7.40;4.50;;;21.00;45.40;;;;;;5015092;28;20047;-57
2022/03/03 09:13:17;;;;;;;6.53;4.20;;;21.00;45.30;;;;;;5014671;28;20042;-57
2022/03/03 09:15:43;;;;;;;6.18;4.10;;;21.00;45.40;;;;;;5013683;28;20045;-57
2022/03/03 09:18:08;;;;;;;5.40;4.07;;;21.00;45.30;;;;;;5014552;28;20045;-57
2022/03/03 09:20:34;;;;;;;7.13;4.15;;;21.00;45.40;;;;;;5014962;28;20041;-57
2022/03/03 09:23:00;;;;;;;7.75;4.85;;;21.00;45.30;;;;;;5013839;28;20597;-58
2022/03/03 09:25:26;;;;;;;8.88;4.38;;;21.00;45.30;;;;;;5014384;28;20060;-58
2022/03/03 09:27:51;;;;;;;7.30;4.68;;;21.00;45.40;;;;;;5014800;28;20081;-58
2022/03/03 09:30:18;;;;;;;7.55;4.63;;;21.10;45.70;;;;;;5013449;28;20129;-58
2022/03/03 09:32:44;;;;;;;8.75;5.03;;;21.00;45.80;;;;;;5013104;28;20096;-58
2022/03/03 09:35:09;;;;;;;8.25;4.50;;;21.10;45.90;;;;;;5014694;28;20486;-58
2022/03/03 09:37:35;;;;;;;7.38;4.53;;;21.10;46.10;;;;;;5014003;28;20058;-59
2022/03/03 09:40:01;;;;;;;7.95;4.45;;;21.00;46.70;;;;;;5014482;28;20439;-59
2022/03/03 09:42:34;;;;;;;8.40;4.63;;;21.10;46.20;;;;;;5014237;28;20111;-59
2022/03/03 09:45:04;;;;;;;8.00;4.90;;;21.10;46.30;;;;;;5013593;28;20128;-59
2022/03/03 09:47:29;;;;;;;6.85;4.45;;;21.10;46.30;;;;;;5013567;28;20463;-59
2022/03/03 09:49:55;;;;;;;8.60;4.72;;;21.10;46.30;;;;;;5012635;28;20537;-59
2022/03/03 09:52:21;;;;;;;8.15;4.72;;;21.10;46.30;;;;;;5014296;28;20042;-58
2022/03/03 09:54:51;;;;;;;7.40;4.55;;;21.10;46.30;;;;;;5014280;28;20137;-59
2022/03/03 09:57:17;;;;;;;9.35;4.30;;;21.10;46.30;;;;;;5013289;28;20532;-59
2022/03/03 09:59:43;;;;;;;9.05;4.30;;;21.10;46.30;;;;;;5014302;28;20046;-59
2022/03/03 10:02:09;;;;;;;8.20;4.78;;;21.00;46.20;;;;;;5012595;28;20053;-59
2022/03/03 10:04:35;;;;;;;7.55;4.60;;;21.00;46.20;;;;;;5013546;28;20054;-59
2022/03/03 10:07:07;;;;;;;7.90;4.82;;;21.00;46.20;;;;;;5014209;28;20041;-58
2022/03/03 10:09:59;;;;;;;7.43;4.45;;;21.10;46.30;;;;;;5013503;28;20065;-58
2022/03/03 10:12:19;;;;;;;7.28;4.22;;;21.00;46.30;;;;;;5012463;28;20441;-58
2022/03/03 10:14:48;;;;;;;7.70;4.35;;;21.10;46.30;;;;;;5013892;28;20492;-58
2022/03/03 10:17:13;;;;;;;7.22;4.28;;;21.00;46.30;;;;;;5012269;28;20054;-58
2022/03/03 10:19:53;;;;;;;8.20;4.97;;;21.00;46.20;;;;;;4995615;28;20060;-58
2022/03/03 10:22:23;;;;;;;6.65;4.30;;;21.00;46.30;;;;;;5013802;28;20057;-58
2022/03/03 10:24:51;;;;;;;8.85;3.90;;;21.00;46.20;;;;;;5013835;28;20129;-58
2022/03/03 10:27:18;;;;;;;7.35;4.53;;;21.00;46.20;;;;;;5012650;28;20056;-58
2022/03/03 10:29:46;;;;;;;7.50;4.15;;;21.00;46.20;;;;;;5012649;28;20042;-57
2022/03/03 10:32:19;;;;;;;7.20;4.53;;;21.00;46.20;;;;;;5012332;28;20478;-57
2022/03/03 10:34:44;;;;;;;7.25;4.30;;;21.00;46.20;;;;;;4996811;28;20053;-58
2022/03/03 10:37:10;;;;;;;9.77;4.20;;;20.90;46.20;;;;;;5013528;28;20053;-58
2022/03/03 10:39:48;;;;;;;6.20;4.10;;;20.90;46.30;;;;;;5013075;28;20038;-58
2022/03/03 10:42:21;;;;;;;7.30;4.30;;;20.90;46.20;;;;;;5012008;28;20037;-57
2022/03/03 10:44:47;;;;;;;8.82;4.70;;;20.90;46.20;;;;;;5013242;28;20041;-58
2022/03/03 10:47:16;;;;;;;6.28;3.50;;;20.90;46.20;;;;;;5012085;28;20054;-58
2022/03/03 10:49:45;;;;;;;7.50;4.43;;;20.90;46.20;;;;;;5013404;28;20049;-57
2022/03/03 10:52:14;;;;;;;;;;;20.80;46.10;;;;;;5003733;28;20494;-57
2022/03/03 10:55:06;;;;;;;7.03;4.20;;;20.80;45.80;;;;;;4993093;28;19925;-58
2022/03/03 10:57:41;;;;;;;6.88;4.22;;;20.80;45.90;;;;;;4993617;28;20054;-58
2022/03/03 11:00:10;;;;;;;10.10;4.55;;;20.80;46.00;;;;;;4992772;28;20050;-58
2022/03/03 11:02:36;;;;;;;7.45;4.57;;;20.80;46.10;;;;;;5007077;28;20122;-58
2022/03/03 11:05:02;;;;;;;7.20;4.45;;;20.80;46.00;;;;;;5003628;28;20125;-58
2022/03/03 11:07:27;;;;;;;7.63;4.43;;;20.80;45.80;;;;;;5000827;28;20609;-58
2022/03/03 11:09:53;;;;;;;7.45;4.65;;;20.80;45.80;;;;;;5007721;28;20053;-58
2022/03/03 11:12:19;;;;;;;6.85;4.25;;;20.70;45.80;;;;;;5009729;28;20053;-58
2022/03/03 11:14:46;;;;;;;5.97;4.10;;;20.70;46.00;;;;;;5010449;28;20050;-59
2022/03/03 11:17:13;;;;;;;5.60;4.00;;;20.70;46.00;;;;;;5012745;28;20057;-58
2022/03/03 11:19:38;;;;;;;8.20;4.57;;;20.70;45.90;;;;;;5012675;28;20350;-57
2022/03/03 11:22:04;;;;;;;6.97;4.43;;;20.70;45.70;;;;;;5011561;28;20482;-58
2022/03/03 11:24:37;;;;;;;6.30;4.05;;;20.70;45.70;;;;;;5011983;28;20053;-58
2022/03/03 11:27:03;;;;;;;7.38;4.45;;;20.70;45.60;;;;;;5011543;28;20046;-58
2022/03/03 11:29:30;;;;;;;6.90;4.13;;;20.70;45.60;;;;;;5010473;28;20145;-58
2022/03/03 11:32:09;;;;;;;7.40;4.45;;;20.70;45.60;;;;;;5011836;28;20061;-58
2022/03/03 11:34:35;;;;;;;5.90;4.13;;;20.70;45.50;;;;;;5012653;28;20475;-57
2022/03/03 11:37:15;;;;;;;7.72;4.60;;;20.70;45.60;;;;;;5012295;28;20068;-58
2022/03/03 11:39:57;;;;;;;6.80;4.68;;;20.70;45.50;;;;;;5016012;28;20405;-58
2022/03/03 11:42:36;;;;;;;7.88;4.93;;;20.70;45.60;;;;;;5014450;28;20478;-58
2022/03/03 11:45:13;;;;;;;8.77;5.20;;;20.70;45.60;;;;;;5014874;28;20038;-59
2022/03/03 11:47:42;;;;;;;8.88;5.43;;;20.70;45.30;;;;;;5016120;28;20420;-59
2022/03/03 11:50:16;;;;;;;9.23;5.13;;;20.70;45.40;;;;;;5014874;28;20537;-59
2022/03/03 11:52:56;;;;;;;7.63;4.93;;;20.70;45.40;;;;;;5014138;28;20037;-58
2022/03/03 11:55:34;;;;;;;7.88;5.03;;;20.70;45.40;;;;;;5011969;28;20033;-58
2022/03/03 11:58:17;;;;;;;10.05;5.18;;;20.70;45.50;;;;;;5012877;28;20054;-58
2022/03/03 12:00:44;;;;;;;6.93;4.60;;;20.70;45.50;;;;;;5014583;28;20077;-58
2022/03/03 12:03:14;;;;;;;10.40;4.78;;;20.70;45.50;;;;;;5015905;28;20101;-58
2022/03/03 12:06:03;;;;;;;6.90;4.50;;;20.80;45.50;;;;;;5012690;28;20054;-58
2022/03/03 12:08:36;;;;;;;6.97;4.78;;;20.80;46.20;;;;;;5014887;28;20054;-59
2022/03/03 12:11:08;;;;;;;6.70;4.43;;;20.80;45.40;;;;;;5014974;28;20134;-58
2022/03/03 12:13:39;;;;;;;7.78;5.22;;;20.80;45.40;;;;;;5016186;28;20124;-58
2022/03/03 12:16:17;;;;;;;7.68;4.72;;;20.80;45.30;;;;;;5015759;28;20053;-58
2022/03/03 12:18:43;;;;;;;10.88;4.60;;;20.80;45.30;;;;;;5015343;28;20099;-58
2022/03/03 12:21:36;;;;;;;7.57;4.25;;;20.80;45.20;;;;;;5015750;28;20042;-57
2022/03/03 12:24:14;;;;;;;6.63;4.40;;;20.80;45.20;;;;;;5015975;28;20050;-57
2022/03/03 12:26:59;;;;;;;6.70;4.50;;;20.90;45.20;;;;;;5014819;28;20506;-58
2022/03/03 12:29:28;;;;;;;6.25;4.25;;;20.80;45.10;;;;;;5015046;28;20410;-57
2022/03/03 12:31:54;;;;;;;7.13;4.93;;;20.90;45.10;;;;;;5014159;28;20088;-58
2022/03/03 12:34:20;;;;;;;8.30;4.32;;;20.90;44.90;;;;;;5012694;28;20425;-57
2022/03/03 12:36:45;;;;;;;5.97;4.30;;;20.90;44.80;;;;;;5015084;28;20050;-58
2022/03/03 12:39:12;;;;;;;8.25;4.50;;;20.90;44.70;;;;;;5014542;28;20042;-58
2022/03/03 12:41:40;;;;;;;7.03;4.57;;;20.90;44.60;;;;;;5015191;28;20486;-58
2022/03/03 12:44:07;;;;;;;9.68;4.30;;;20.90;44.50;;;;;;5015264;28;20111;-58
2022/03/03 12:46:35;;;;;;;5.53;3.73;;;20.90;44.30;;;;;;5014939;28;20124;-58
2022/03/03 12:49:02;;;;;;;;;;;21.00;44.30;;;;;;5015695;28;20478;-58